Time;durP1;ratioP1;P1;durP2;ratioP2;P2;SDS_P1;SDS_P2;PMS_P1;PMS_P2;Temp;Humidity;BMP_temperature;BMP_pressure;BME280_temperature;BME280_humidity;BME280_pressure;Samples;Min_cycle;Max_cycle;Signal;HPM_P1;HPM_P2
2022/06/25 00:00:59;;;;;;;5.28;2.15;;;;;;;17.46;100.00;99176.19;5098168;28;20046;-50
2022/06/25 00:03:44;;;;;;;3.08;2.10;;;;;;;17.38;100.00;99171.34;5099904;28;20075;-51
2022/06/25 00:06:29;;;;;;;2.70;2.47;;;;;;;17.13;100.00;99166.75;5093700;28;20052;-51
2022/06/25 00:09:14;;;;;;;4.05;2.30;;;;;;;17.19;100.00;99176.97;5089660;28;20566;-51
2022/06/25 00:15:03;;;;;;;;;;;;;;;17.25;100.00;99194.22;5090502;28;20405;-51
2022/06/25 00:17:48;;;;;;;2.42;2.22;;;;;;;17.11;100.00;99186.31;5093930;28;19924;-51
2022/06/25 00:20:32;;;;;;;2.63;2.05;;;;;;;16.98;100.00;99189.69;5099634;28;20047;-51
2022/06/25 00:23:17;;;;;;;2.65;2.22;;;;;;;16.96;100.00;99173.06;5092080;28;20546;-50
2022/06/25 00:26:01;;;;;;;2.78;2.17;;;;;;;17.07;100.00;99176.88;5094347;28;20490;-51
2022/06/25 00:28:46;;;;;;;3.20;1.90;;;;;;;17.08;100.00;99183.84;5094801;28;20071;-50
2022/06/25 00:31:30;;;;;;;3.55;2.08;;;;;;;16.93;100.00;99170.63;5093608;28;20044;-50
2022/06/25 00:34:15;;;;;;;4.05;2.40;;;;;;;17.01;100.00;99172.81;5097818;28;20047;-51
2022/06/25 00:37:00;;;;;;;3.25;2.50;;;;;;;16.92;100.00;99171.56;5094098;28;20040;-52
2022/06/25 00:39:44;;;;;;;3.53;2.00;;;;;;;16.84;100.00;99165.06;5094346;28;20044;-50
2022/06/25 00:42:30;;;;;;;2.58;2.10;;;;;;;16.94;100.00;99171.47;5096907;28;20424;-50
2022/06/25 00:45:15;;;;;;;3.45;2.58;;;;;;;16.92;100.00;99168.91;5090798;28;20044;-52
2022/06/25 00:48:01;;;;;;;4.03;2.72;;;;;;;16.85;100.00;99170.25;5091113;28;20035;-51
2022/06/25 00:50:46;;;;;;;4.57;2.67;;;;;;;16.85;100.00;99175.53;5093219;28;20079;-50
2022/06/25 00:53:32;;;;;;;3.55;2.17;;;;;;;16.89;100.00;99168.25;5095916;28;20083;-51
2022/06/25 00:56:19;;;;;;;2.50;2.10;;;;;;;16.88;100.00;99169.22;5093884;28;20048;-50
2022/06/25 00:59:05;;;;;;;2.30;2.03;;;;;;;16.81;100.00;99171.38;5093841;28;20048;-51
2022/06/25 01:01:50;;;;;;;2.10;1.90;;;;;;;16.70;100.00;99174.63;5091823;28;20092;-51
2022/06/25 01:04:38;;;;;;;2.00;1.83;;;;;;;16.77;100.00;99168.06;5092374;28;20482;-51
2022/06/25 01:07:23;;;;;;;2.33;2.13;;;;;;;16.61;100.00;99167.25;5091824;28;20048;-51
2022/06/25 01:10:09;;;;;;;3.63;2.35;;;;;;;16.71;100.00;99176.34;5093066;28;20100;-50
2022/06/25 01:12:54;;;;;;;4.35;2.38;;;;;;;16.72;100.00;99172.75;5093563;28;20040;-51
2022/06/25 01:15:39;;;;;;;2.85;2.35;;;;;;;16.66;100.00;99164.31;5092295;28;20043;-50
2022/06/25 01:18:23;;;;;;;3.15;2.40;;;;;;;16.66;100.00;99165.19;5096424;28;20044;-50
2022/06/25 01:21:07;;;;;;;3.28;2.50;;;;;;;16.55;100.00;99159.69;5092531;28;20044;-51
2022/06/25 01:23:53;;;;;;;3.60;2.28;;;;;;;16.61;100.00;99156.69;5093526;28;20047;-50
2022/06/25 01:26:39;;;;;;;2.97;2.20;;;;;;;16.62;100.00;99160.19;5091790;28;20047;-51
2022/06/25 01:29:25;;;;;;;5.95;2.80;;;;;;;16.55;100.00;99147.31;5089936;28;20403;-51
2022/06/25 01:32:12;;;;;;;2.20;2.00;;;;;;;16.49;100.00;99155.63;5097957;28;20047;-50
2022/06/25 01:34:57;;;;;;;5.03;2.50;;;;;;;16.51;100.00;99160.78;5097058;28;20486;-51
2022/06/25 01:37:41;;;;;;;2.80;2.42;;;;;;;16.45;100.00;99159.41;5095952;28;20040;-50
2022/06/25 01:40:26;;;;;;;3.90;2.65;;;;;;;16.47;100.00;99160.13;5096260;28;20724;-50
2022/06/25 01:43:10;;;;;;;3.88;2.47;;;;;;;16.49;100.00;99163.53;5096701;28;20069;-51
2022/06/25 01:45:55;;;;;;;4.40;3.03;;;;;;;16.39;100.00;99165.03;5104361;28;20048;-51
2022/06/25 01:48:39;;;;;;;5.55;3.08;;;;;;;16.31;100.00;99160.22;5095298;28;20123;-51
2022/06/25 01:51:23;;;;;;;4.10;3.72;;;;;;;16.42;100.00;99158.72;5094797;28;20044;-51
2022/06/25 01:54:08;;;;;;;5.15;3.72;;;;;;;16.38;100.00;99163.34;5096882;28;20051;-51
2022/06/25 01:56:53;;;;;;;7.28;3.25;;;;;;;16.36;100.00;99160.78;5099875;28;20148;-50
2022/06/25 01:59:38;;;;;;;3.70;3.30;;;;;;;16.42;100.00;99166.66;5095184;28;20040;-51
2022/06/25 02:02:23;;;;;;;3.50;3.08;;;;;;;16.34;100.00;99172.38;5103146;27;20044;-50
2022/06/25 02:05:12;;;;;;;5.40;3.15;;;;;;;16.33;100.00;99168.88;5095792;28;20048;-50
2022/06/25 02:07:57;;;;;;;4.38;2.92;;;;;;;16.26;100.00;99166.69;5093297;28;20048;-50
2022/06/25 02:10:41;;;;;;;3.90;3.50;;;;;;;16.22;100.00;99167.81;5095149;28;20058;-51
2022/06/25 02:13:27;;;;;;;4.90;2.92;;;;;;;16.19;100.00;99174.13;5097163;28;20100;-51
2022/06/25 02:16:12;;;;;;;3.53;3.22;;;;;;;16.24;100.00;99181.78;5093413;28;20036;-51
2022/06/25 02:18:57;;;;;;;3.85;3.17;;;;;;;16.21;100.00;99182.81;5092306;28;20043;-50
2022/06/25 02:21:43;;;;;;;3.90;3.05;;;;;;;16.23;100.00;99174.81;5097604;28;20075;-51
2022/06/25 02:24:27;;;;;;;4.95;2.78;;;;;;;16.10;100.00;99172.88;5092716;28;20036;-50
2022/06/25 02:27:11;;;;;;;4.03;2.90;;;;;;;16.10;100.00;99177.31;5098947;28;20266;-51
2022/06/25 02:29:56;;;;;;;3.90;3.10;;;;;;;16.01;100.00;99176.03;5097480;28;20055;-51
2022/06/25 02:32:42;;;;;;;3.35;3.05;;;;;;;16.04;100.00;99178.50;5102034;28;20138;-50
2022/06/25 02:35:27;;;;;;;5.25;3.28;;;;;;;16.01;100.00;99183.09;5093924;28;20055;-50
2022/06/25 02:38:12;;;;;;;4.82;3.70;;;;;;;16.07;100.00;99198.59;5093587;28;20613;-51
2022/06/25 02:41:00;;;;;;;4.15;3.60;;;;;;;15.91;100.00;99211.81;5093351;28;20051;-51
2022/06/25 02:43:52;;;;;;;4.35;3.72;;;;;;;15.98;100.00;99209.69;5101526;28;20044;-50
2022/06/25 02:46:52;;;;;;;5.32;3.83;;;;;;;15.98;100.00;99199.13;5104690;28;20047;-50
2022/06/25 02:49:39;;;;;;;3.97;3.58;;;;;;;15.96;100.00;99201.03;5099817;28;20130;-50
2022/06/25 02:52:24;;;;;;;5.93;3.40;;;;;;;16.01;100.00;99212.16;5094568;28;20043;-51
2022/06/25 02:55:08;;;;;;;6.25;4.30;;;;;;;15.97;100.00;99200.91;5099054;28;20074;-50
2022/06/25 03:01:05;;;;;;;4.28;3.75;;;;;;;15.90;100.00;99199.56;5099470;28;20037;-51
2022/06/25 03:03:50;;;;;;;3.95;3.35;;;;;;;15.96;100.00;99196.59;5096700;28;20048;-49
2022/06/25 03:06:36;;;;;;;7.15;3.45;;;;;;;15.83;100.00;99199.06;5093310;28;20895;-51
2022/06/25 03:09:21;;;;;;;5.03;2.78;;;;;;;15.99;100.00;99203.47;5098322;28;20044;-51
2022/06/25 03:12:06;;;;;;;3.45;3.08;;;;;;;16.04;100.00;99204.91;5095188;28;20475;-51
2022/06/25 03:14:51;;;;;;;5.55;2.60;;;;;;;16.06;100.00;99208.31;5098934;28;20433;-51
2022/06/25 03:17:38;;;;;;;8.05;3.42;;;;;;;16.07;100.00;99199.47;5096192;28;20131;-51
2022/06/25 03:20:41;;;;;;;3.50;2.95;;;;;;;16.16;100.00;99200.72;5094761;28;20052;-51
2022/06/25 03:23:29;;;;;;;5.63;3.10;;;;;;;16.23;100.00;99198.59;5095070;28;20035;-50
2022/06/25 03:26:15;;;;;;;3.33;2.90;;;;;;;16.34;100.00;99202.28;5097152;28;20097;-50
2022/06/25 03:28:59;;;;;;;3.35;3.05;;;;;;;16.40;100.00;99201.09;5095761;28;20040;-51
2022/06/25 03:31:46;;;;;;;5.63;2.38;;;;;;;16.49;100.00;99197.91;5093582;28;20097;-51
2022/06/25 03:34:51;;;;;;;4.43;2.30;;;;;;;16.62;100.00;99211.25;5095907;28;20134;-51
2022/06/25 03:37:35;;;;;;;4.95;2.75;;;;;;;16.78;100.00;99203.28;5093303;28;20039;-50
2022/06/25 03:40:20;;;;;;;6.47;2.97;;;;;;;16.80;100.00;99225.19;5094721;28;20134;-51
2022/06/25 03:43:05;;;;;;;3.47;2.55;;;;;;;17.01;100.00;99231.84;5093812;28;20043;-50
2022/06/25 03:45:53;;;;;;;3.13;2.70;;;;;;;17.03;100.00;99221.19;5094621;28;20047;-51
2022/06/25 03:48:39;;;;;;;4.97;3.22;;;;;;;16.93;100.00;99220.88;5095054;28;20048;-51
2022/06/25 03:51:36;;;;;;;2.58;2.38;;;;;;;17.17;100.00;99228.28;5094860;28;20561;-51
2022/06/25 03:54:21;;;;;;;6.28;2.60;;;;;;;17.11;100.00;99221.56;5092728;28;20048;-51
2022/06/25 03:57:06;;;;;;;2.58;2.33;;;;;;;17.11;100.00;99236.59;5093435;28;20048;-51
2022/06/25 04:00:06;;;;;;;2.53;2.10;;;;;;;17.20;100.00;99242.16;5095126;28;20035;-51
2022/06/25 04:02:57;;;;;;;2.53;2.28;;;;;;;17.15;100.00;99246.88;5094611;28;20043;-51
2022/06/25 04:05:47;;;;;;;3.63;2.80;;;;;;;17.28;100.00;99239.88;5093081;28;20647;-51
2022/06/25 04:08:52;;;;;;;2.78;2.35;;;;;;;17.28;100.00;99245.16;5093647;28;20044;-52
2022/06/25 04:11:39;;;;;;;4.15;2.70;;;;;;;17.38;100.00;99248.09;5094605;28;20187;-50
2022/06/25 04:14:25;;;;;;;4.20;2.80;;;;;;;17.44;100.00;99239.78;5097427;28;20047;-49
2022/06/25 04:17:10;;;;;;;3.40;2.70;;;;;;;17.42;100.00;99239.06;5092783;28;20121;-52
2022/06/25 04:19:56;;;;;;;4.40;2.67;;;;;;;17.45;100.00;99243.28;5094327;28;20498;-51
2022/06/25 04:22:41;;;;;;;3.92;2.97;;;;;;;17.47;100.00;99254.63;5093738;28;20052;-51
2022/06/25 04:25:26;;;;;;;3.22;2.80;;;;;;;17.63;100.00;99250.09;5093908;28;20493;-51
2022/06/25 04:31:20;;;;;;;3.08;2.65;;;;;;;17.51;100.00;99254.34;5098308;28;20055;-49
2022/06/25 04:34:05;;;;;;;3.08;2.35;;;;;;;17.59;100.00;99256.53;5094129;28;20048;-51
2022/06/25 04:36:50;;;;;;;3.25;2.33;;;;;;;17.72;100.00;99256.59;5093398;28;20146;-51
2022/06/25 04:39:42;;;;;;;3.35;2.50;;;;;;;17.77;100.00;99257.19;5089299;28;20055;-51
2022/06/25 04:42:27;;;;;;;3.83;2.72;;;;;;;17.80;100.00;99250.84;5093245;28;20051;-51
2022/06/25 04:45:11;;;;;;;3.97;2.70;;;;;;;17.92;100.00;99252.72;5091163;28;20852;-51
2022/06/25 04:48:08;;;;;;;3.13;2.60;;;;;;;18.15;100.00;99251.22;5082104;28;20039;-51
2022/06/25 04:51:16;;;;;;;6.00;2.63;;;;;;;18.57;100.00;99258.16;5073822;28;20058;-50
2022/06/25 04:54:02;;;;;;;4.38;2.75;;;;;;;18.37;100.00;99261.28;5093023;28;20047;-51
2022/06/25 04:57:10;;;;;;;3.60;2.60;;;;;;;19.22;100.00;99265.28;5093176;28;20498;-52
2022/06/25 05:00:11;;;;;;;3.80;3.08;;;;;;;19.36;100.00;99259.84;5094475;28;20040;-52
2022/06/25 05:02:56;;;;;;;5.22;3.83;;;;;;;19.68;100.00;99261.25;5092848;28;20063;-51
2022/06/25 05:05:41;;;;;;;3.83;2.63;;;;;;;19.81;100.00;99254.94;5094141;28;20048;-51
2022/06/25 05:08:30;;;;;;;2.75;2.53;;;;;;;20.29;100.00;99262.13;5105943;28;20569;-52
2022/06/25 05:11:14;;;;;;;5.30;3.05;;;;;;;20.64;100.00;99258.69;5099459;28;20039;-52
2022/06/25 05:13:58;;;;;;;4.20;3.00;;;;;;;20.64;100.00;99264.84;5091519;28;20044;-52
2022/06/25 05:16:42;;;;;;;3.60;2.95;;;;;;;20.80;100.00;99255.69;5095183;28;20044;-52
2022/06/25 05:19:27;;;;;;;5.28;3.15;;;;;;;21.03;100.00;99268.09;5093787;28;20028;-52
2022/06/25 05:22:13;;;;;;;4.75;2.72;;;;;;;21.23;100.00;99269.22;5097355;28;20055;-52
2022/06/25 05:24:57;;;;;;;3.55;3.10;;;;;;;21.57;100.00;99266.59;5096559;28;20043;-53
2022/06/25 05:27:42;;;;;;;4.60;2.97;;;;;;;22.02;100.00;99263.91;5091807;28;20039;-54
2022/06/25 05:30:26;;;;;;;6.30;2.88;;;;;;;22.11;98.78;99265.81;5094393;28;20048;-52
2022/06/25 05:33:11;;;;;;;5.28;2.80;;;;;;;22.18;94.18;99267.03;5095220;28;20051;-52
2022/06/25 05:35:55;;;;;;;3.50;2.67;;;;;;;22.60;94.57;99264.47;5101079;28;20343;-53
2022/06/25 05:38:40;;;;;;;3.70;3.00;;;;;;;22.58;88.74;99269.09;5101028;28;20043;-52
2022/06/25 05:41:25;;;;;;;2.92;2.60;;;;;;;22.92;90.63;99276.94;5103754;28;20039;-53
2022/06/25 05:44:09;;;;;;;6.78;2.47;;;;;;;23.29;89.39;99270.16;5092504;28;20059;-53
2022/06/25 05:46:54;;;;;;;4.18;2.92;;;;;;;23.07;89.67;99275.66;5099182;28;20104;-54
2022/06/25 05:49:38;;;;;;;3.80;2.55;;;;;;;23.80;89.03;99273.81;5094851;28;20551;-53
2022/06/25 05:52:23;;;;;;;5.90;2.75;;;;;;;22.89;88.77;99283.38;5096213;28;20048;-54
2022/06/25 05:55:08;;;;;;;4.47;2.80;;;;;;;22.59;90.78;99279.66;5096241;28;20055;-53
2022/06/25 05:57:54;;;;;;;3.55;3.17;;;;;;;22.38;91.77;99286.75;5097250;28;20591;-53
2022/06/25 06:00:39;;;;;;;8.10;3.15;;;;;;;21.95;97.13;99279.53;5097188;28;20036;-53
2022/06/25 06:03:24;;;;;;;4.72;2.80;;;;;;;21.98;97.80;99289.13;5096356;28;20051;-53
2022/06/25 06:06:08;;;;;;;4.65;2.92;;;;;;;22.20;98.08;99286.44;5097418;28;20048;-53
2022/06/25 06:08:52;;;;;;;5.18;2.80;;;;;;;22.17;96.92;99286.69;5098209;28;20092;-54
2022/06/25 06:11:37;;;;;;;5.18;2.55;;;;;;;22.81;94.64;99302.72;5092541;28;20052;-53
2022/06/25 06:14:22;;;;;;;3.17;2.88;;;;;;;23.18;93.29;99309.47;5095374;28;20058;-53
2022/06/25 06:17:06;;;;;;;4.68;3.20;;;;;;;23.96;83.82;99306.25;5093958;28;20052;-53
2022/06/25 06:19:51;;;;;;;6.47;3.58;;;;;;;23.74;83.89;99301.94;5092464;28;20056;-53
2022/06/25 06:22:35;;;;;;;9.48;3.05;;;;;;;23.74;86.99;99312.63;5092815;28;20051;-54
2022/06/25 06:25:20;;;;;;;4.35;2.60;;;;;;;22.99;84.64;99304.84;5093768;28;20046;-55
2022/06/25 06:28:04;;;;;;;3.78;2.78;;;;;;;23.03;85.25;99306.28;5088491;28;20739;-53
2022/06/25 06:30:48;;;;;;;7.50;2.72;;;;;;;22.91;88.58;99308.16;5094894;28;20105;-54
2022/06/25 06:33:33;;;;;;;4.03;2.53;;;;;;;23.32;88.13;99298.44;5093912;28;20051;-54
2022/06/25 06:36:17;;;;;;;7.53;2.65;;;;;;;23.50;84.91;99304.06;5092753;28;20490;-54
2022/06/25 06:39:02;;;;;;;3.17;2.45;;;;;;;24.10;84.75;99306.84;5096917;28;20128;-54
2022/06/25 06:41:47;;;;;;;4.50;2.45;;;;;;;24.69;83.13;99300.63;5094063;28;20048;-54
2022/06/25 06:44:31;;;;;;;3.47;2.60;;;;;;;24.82;80.56;99305.69;5095466;28;20450;-54
2022/06/25 06:47:16;;;;;;;3.70;2.88;;;;;;;24.53;80.81;99309.19;5096801;28;20475;-53
2022/06/25 06:50:00;;;;;;;3.25;2.55;;;;;;;24.21;78.89;99312.06;5092693;28;20036;-53
2022/06/25 06:52:45;;;;;;;5.10;3.25;;;;;;;24.91;77.21;99304.84;5093714;28;20504;-52
2022/06/25 06:55:29;;;;;;;4.28;2.75;;;;;;;25.28;77.59;99306.78;5097990;28;20301;-54
2022/06/25 06:58:14;;;;;;;5.70;3.03;;;;;;;25.84;74.13;99312.16;5089620;28;20463;-53
2022/06/25 07:00:58;;;;;;;3.25;2.85;;;;;;;25.99;73.45;99307.13;5089094;28;20077;-54
2022/06/25 07:03:43;;;;;;;6.80;3.55;;;;;;;25.90;69.45;99301.81;5087560;28;20117;-54
2022/06/25 07:06:28;;;;;;;6.15;2.88;;;;;;;26.41;66.81;99300.38;5094614;28;20494;-54
2022/06/25 07:09:12;;;;;;;5.97;3.00;;;;;;;27.20;67.05;99303.19;5093979;28;20040;-54
2022/06/25 07:11:56;;;;;;;4.90;2.78;;;;;;;27.09;70.69;99297.19;5094146;28;20453;-54
2022/06/25 07:14:41;;;;;;;3.72;2.45;;;;;;;27.73;67.19;99298.63;5092587;28;20048;-54
2022/06/25 07:17:26;;;;;;;4.57;2.55;;;;;;;27.82;66.51;99304.91;5093315;28;20052;-54
2022/06/25 07:20:11;;;;;;;4.60;2.85;;;;;;;27.74;65.66;99297.59;5090888;28;20047;-54
2022/06/25 07:22:55;;;;;;;2.88;2.25;;;;;;;27.60;66.39;99292.84;5090672;28;20071;-55
2022/06/25 07:25:40;;;;;;;4.80;2.50;;;;;;;27.57;62.97;99296.69;5091779;28;20051;-55
2022/06/25 07:28:24;;;;;;;3.67;2.60;;;;;;;27.87;61.91;99294.50;5093694;28;20171;-56
2022/06/25 07:31:09;;;;;;;4.43;2.38;;;;;;;27.06;61.70;99297.50;5093718;28;20056;-56
2022/06/25 07:33:53;;;;;;;5.53;2.25;;;;;;;28.16;60.93;99294.94;5093495;28;20127;-55
2022/06/25 07:36:38;;;;;;;4.95;2.60;;;;;;;27.60;60.32;99301.75;5091310;28;20952;-54
2022/06/25 07:39:22;;;;;;;2.38;1.85;;;;;;;28.20;60.23;99293.59;5090890;28;20533;-54
2022/06/25 07:42:07;;;;;;;3.15;2.50;;;;;;;27.88;59.97;99293.50;5088576;28;20606;-54
2022/06/25 07:44:52;;;;;;;3.10;2.20;;;;;;;28.27;58.29;99299.19;5091280;28;20063;-55
2022/06/25 07:47:38;;;;;;;2.70;1.92;;;;;;;28.29;61.24;99297.19;5091887;28;20039;-55
2022/06/25 07:53:25;;;;;;;4.75;2.40;;;;;;;28.24;58.21;99299.50;5091034;28;20051;-54
2022/06/25 07:56:09;;;;;;;3.78;2.20;;;;;;;28.71;59.43;99298.13;5092266;28;20046;-55
2022/06/25 07:58:54;;;;;;;3.92;2.17;;;;;;;29.31;59.25;99309.44;5093882;28;20175;-55
2022/06/25 08:01:39;;;;;;;3.53;2.47;;;;;;;27.86;61.72;99309.81;5092930;28;20103;-55
2022/06/25 08:04:23;;;;;;;4.10;2.28;;;;;;;29.15;59.06;99314.81;5098279;28;20510;-55
2022/06/25 08:07:08;;;;;;;3.50;2.20;;;;;;;29.02;59.06;99309.97;5092818;28;20402;-56
2022/06/25 08:09:52;;;;;;;3.50;2.38;;;;;;;29.20;58.66;99311.63;5089707;28;20048;-55
2022/06/25 08:12:37;;;;;;;8.73;4.30;;;;;;;29.49;58.14;99311.91;5091744;28;20190;-55
2022/06/25 08:15:21;;;;;;;14.27;9.95;;;;;;;28.97;55.85;99320.38;5091366;28;20070;-55
2022/06/25 08:18:05;;;;;;;10.93;8.13;;;;;;;28.75;57.22;99327.25;5095220;28;20514;-55
2022/06/25 08:20:51;;;;;;;10.63;7.00;;;;;;;29.80;54.15;99320.13;5087608;28;20063;-55
2022/06/25 08:23:35;;;;;;;8.18;4.25;;;;;;;29.44;57.67;99335.84;5088352;28;20051;-55
2022/06/25 08:26:20;;;;;;;2.88;2.40;;;;;;;30.10;55.18;99333.03;5090140;28;20044;-55
2022/06/25 08:29:04;;;;;;;3.95;2.95;;;;;;;30.46;52.98;99326.09;5088493;28;20068;-55
2022/06/25 08:31:50;;;;;;;3.38;2.20;;;;;;;30.38;54.68;99331.53;5088947;28;20059;-55
2022/06/25 08:34:34;;;;;;;6.45;2.47;;;;;;;30.58;52.36;99334.66;5089767;28;20084;-56
2022/06/25 08:37:19;;;;;;;2.97;2.00;;;;;;;30.04;53.33;99326.47;5088485;28;20453;-56
2022/06/25 08:40:04;;;;;;;3.17;1.92;;;;;;;27.97;56.79;99332.88;5089610;28;20040;-55
2022/06/25 08:42:49;;;;;;;3.55;1.90;;;;;;;29.64;54.13;99330.13;5092473;28;20056;-55
2022/06/25 08:45:33;;;;;;;3.70;2.00;;;;;;;30.09;53.06;99323.22;5090731;28;21458;-55
2022/06/25 08:48:23;;;;;;;3.47;2.67;;;;;;;29.14;54.56;99326.63;5087105;28;20039;-56
2022/06/25 08:51:09;;;;;;;5.07;2.38;;;;;;;28.87;55.15;99325.09;5088451;28;20062;-55
2022/06/25 08:53:58;;;;;;;3.22;2.30;;;;;;;30.20;51.70;99330.97;5096087;28;20643;-55
2022/06/25 08:56:42;;;;;;;3.58;2.40;;;;;;;30.41;52.83;99331.19;5096917;28;20205;-55
2022/06/25 08:59:30;;;;;;;2.58;1.63;;;;;;;31.22;50.83;99320.81;5099051;28;20100;-55
2022/06/25 09:02:14;;;;;;;4.32;2.33;;;;;;;31.25;51.60;99335.84;5094029;28;20097;-55
2022/06/25 09:04:59;;;;;;;2.65;1.98;;;;;;;31.85;49.25;99322.25;5093003;28;20047;-56
2022/06/25 09:07:54;;;;;;;4.97;2.13;;;;;;;31.60;50.53;99328.94;5096386;28;20047;-56
2022/06/25 09:10:44;;;;;;;3.30;2.08;;;;;;;32.06;47.30;99331.47;5094478;28;20044;-56
2022/06/25 09:13:28;;;;;;;6.80;2.03;;;;;;;31.14;47.65;99332.56;5095345;28;20051;-56
2022/06/25 09:16:24;;;;;;;4.68;2.30;;;;;;;30.54;52.40;99335.16;5093200;28;20414;-56
2022/06/25 09:19:08;;;;;;;2.90;2.10;;;;;;;31.37;50.56;99334.44;5093689;28;20479;-55
2022/06/25 09:21:53;;;;;;;3.20;1.83;;;;;;;32.11;47.46;99334.47;5094045;28;20059;-57
2022/06/25 09:24:59;;;;;;;3.55;1.67;;;;;;;31.88;47.72;99329.16;5094803;28;20052;-56
2022/06/25 09:27:44;;;;;;;2.45;1.75;;;;;;;31.51;46.71;99327.34;5094093;28;20040;-57
2022/06/25 09:30:29;;;;;;;2.83;1.90;;;;;;;31.13;47.99;99324.63;5090332;28;20367;-55
2022/06/25 09:33:14;;;;;;;4.57;1.55;;;;;;;32.19;45.89;99323.53;5092205;28;20162;-54
2022/06/25 09:35:59;;;;;;;5.38;1.77;;;;;;;32.65;47.00;99316.97;5093565;28;20043;-56
2022/06/25 09:38:49;;;;;;;3.08;1.70;;;;;;;32.39;44.39;99320.22;5092514;28;20050;-56
2022/06/25 09:41:53;;;;;;;5.63;1.58;;;;;;;32.48;43.72;99329.94;5095975;28;20481;-55
2022/06/25 09:44:38;;;;;;;1.83;1.30;;;;;;;32.61;44.75;99329.25;5095614;28;20048;-56
2022/06/25 09:47:23;;;;;;;3.28;1.00;;;;;;;31.91;46.56;99330.66;5098886;28;20753;-56
2022/06/25 09:50:18;;;;;;;3.28;1.40;;;;;;;31.31;46.35;99333.25;5088315;28;20055;-56
2022/06/25 09:53:02;;;;;;;1.92;1.38;;;;;;;31.85;46.35;99327.66;5091786;28;20040;-55
2022/06/25 09:55:47;;;;;;;3.53;1.30;;;;;;;31.75;44.15;99335.22;5091960;28;20048;-56
2022/06/25 09:58:32;;;;;;;2.50;1.17;;;;;;;32.69;44.17;99329.13;5090900;28;20067;-56
2022/06/25 10:01:23;;;;;;;2.08;1.30;;;;;;;32.07;42.44;99335.88;5092257;28;20059;-56
2022/06/25 10:04:08;;;;;;;1.73;1.17;;;;;;;32.98;41.70;99329.00;5090413;28;20048;-56
2022/06/25 10:06:56;;;;;;;1.30;1.20;;;;;;;33.17;42.04;99322.09;5090186;28;20058;-56
2022/06/25 10:09:41;;;;;;;2.58;1.10;;;;;;;32.79;44.29;99329.63;5089504;28;20035;-56
2022/06/25 10:12:26;;;;;;;4.15;1.13;;;;;;;32.58;43.52;99328.59;5095058;28;20043;-57
2022/06/25 10:15:14;;;;;;;2.28;1.48;;;;;;;32.73;44.59;99331.25;5096756;28;20075;-56
2022/06/25 10:18:04;;;;;;;4.47;1.30;;;;;;;32.57;43.10;99326.09;5098270;28;20436;-56
2022/06/25 10:20:49;;;;;;;1.52;1.05;;;;;;;32.57;43.67;99335.06;5096552;28;20424;-56
2022/06/25 10:23:34;;;;;;;2.72;1.40;;;;;;;32.56;44.92;99330.69;5094601;28;20637;-56
2022/06/25 10:26:20;;;;;;;5.38;1.05;;;;;;;33.16;44.97;99335.84;5098336;28;20058;-56
2022/06/25 10:29:25;;;;;;;2.10;1.00;;;;;;;32.79;43.76;99335.06;5096524;28;20043;-56
2022/06/25 10:32:15;;;;;;;1.65;0.95;;;;;;;33.45;41.95;99332.97;5097253;28;20497;-56
2022/06/25 10:35:03;;;;;;;1.83;0.88;;;;;;;33.52;43.82;99338.47;5098411;28;20390;-56
2022/06/25 10:38:07;;;;;;;4.18;1.38;;;;;;;31.99;44.94;99341.41;5096894;28;20135;-56
2022/06/25 10:40:56;;;;;;;2.35;0.90;;;;;;;32.99;41.70;99338.84;5094050;28;20085;-56
2022/06/25 10:43:42;;;;;;;3.63;0.80;;;;;;;32.65;41.92;99325.13;5094153;28;20032;-56
2022/06/25 10:46:36;;;;;;;3.22;1.08;;;;;;;32.16;41.15;99328.47;5095540;28;20058;-56
2022/06/25 10:49:22;;;;;;;2.35;0.90;;;;;;;32.03;45.22;99337.28;5097426;28;20444;-57
2022/06/25 10:52:07;;;;;;;2.42;1.35;;;;;;;32.19;43.71;99333.53;5092467;28;20244;-55
2022/06/25 10:54:52;;;;;;;3.15;2.88;;;;;;;31.85;43.48;99329.50;5093074;28;20101;-56
2022/06/25 10:57:40;;;;;;;4.57;1.10;;;;;;;32.22;41.44;99331.28;5092955;28;20513;-55
2022/06/25 11:00:24;;;;;;;4.35;0.80;;;;;;;32.79;40.92;99333.22;5092492;28;20048;-56
2022/06/25 11:03:09;;;;;;;2.17;1.10;;;;;;;32.96;42.40;99328.38;5095282;28;20055;-56
2022/06/25 11:05:55;;;;;;;2.63;2.20;;;;;;;33.09;40.67;99326.84;5094956;28;20032;-57
2022/06/25 11:08:40;;;;;;;2.17;0.60;;;;;;;32.76;41.96;99330.88;5092577;28;20051;-56
2022/06/25 11:11:29;;;;;;;3.78;2.10;;;;;;;32.31;41.42;99332.00;5095186;28;20043;-55
2022/06/25 11:14:20;;;;;;;3.72;1.80;;;;;;;32.85;38.52;99328.03;5094969;28;20057;-54
2022/06/25 11:17:09;;;;;;;2.83;0.75;;;;;;;33.28;38.11;99327.00;5097804;28;20100;-54
2022/06/25 11:19:54;;;;;;;6.18;1.90;;;;;;;32.15;42.22;99324.94;5093004;28;20055;-55
2022/06/25 11:22:49;;;;;;;3.97;1.33;;;;;;;31.94;40.86;99330.28;5093595;28;20031;-54
2022/06/25 11:28:54;;;;;;;3.97;0.90;;;;;;;32.32;42.58;99339.09;5092536;28;20135;-56
2022/06/25 11:31:43;;;;;;;3.80;1.05;;;;;;;32.49;42.06;99327.03;5096734;28;20036;-55
2022/06/25 11:34:29;;;;;;;3.75;1.23;;;;;;;32.40;39.91;99332.72;5098330;28;20039;-54
2022/06/25 11:37:17;;;;;;;2.60;1.20;;;;;;;32.73;40.65;99335.84;5098297;28;20390;-55
2022/06/25 11:40:02;;;;;;;2.03;1.13;;;;;;;32.11;40.83;99337.19;5090686;28;20119;-55
2022/06/25 11:42:47;;;;;;;1.30;0.75;;;;;;;32.79;40.22;99326.91;5094987;28;20047;-54
2022/06/25 11:45:32;;;;;;;3.83;1.50;;;;;;;31.75;41.54;99329.81;5092475;28;20486;-55
2022/06/25 11:48:16;;;;;;;2.72;0.90;;;;;;;32.06;41.93;99332.31;5092883;28;20059;-54
2022/06/25 11:51:03;;;;;;;1.35;0.75;;;;;;;32.32;43.47;99330.97;5096956;28;20046;-55
2022/06/25 11:53:47;;;;;;;1.88;0.82;;;;;;;32.86;41.43;99335.97;5097620;28;20044;-56
2022/06/25 11:56:32;;;;;;;2.92;0.93;;;;;;;32.90;42.63;99323.69;5098667;28;20044;-53
2022/06/25 11:59:25;;;;;;;1.70;0.90;;;;;;;32.78;40.49;99327.97;5095738;28;20055;-56
2022/06/25 12:02:11;;;;;;;2.65;0.80;;;;;;;32.55;41.04;99326.25;5092015;28;20047;-56
2022/06/25 12:05:00;;;;;;;2.63;1.15;;;;;;;32.56;40.85;99327.97;5094983;28;20661;-56
2022/06/25 12:07:45;;;;;;;1.00;0.50;;;;;;;31.87;40.61;99322.03;5092155;28;20426;-58
2022/06/25 12:10:30;;;;;;;1.80;0.88;;;;;;;32.41;41.52;99326.28;5094742;28;20056;-57
2022/06/25 12:13:16;;;;;;;2.03;0.70;;;;;;;32.69;41.21;99319.09;5088351;28;20086;-57
2022/06/25 12:16:05;;;;;;;3.40;0.98;;;;;;;32.48;41.92;99325.34;5090042;28;20046;-55
2022/06/25 12:18:55;;;;;;;1.65;0.60;;;;;;;33.26;42.77;99329.06;5092956;28;20187;-55
2022/06/25 12:21:39;;;;;;;2.78;0.88;;;;;;;32.71;41.13;99319.75;5087482;28;20055;-55
2022/06/25 12:24:24;;;;;;;1.77;1.00;;;;;;;32.27;43.68;99323.44;5089124;28;20498;-56
2022/06/25 12:27:09;;;;;;;3.30;0.60;;;;;;;32.02;41.75;99325.63;5088707;28;20055;-54
2022/06/25 12:29:56;;;;;;;1.85;1.02;;;;;;;32.57;43.19;99328.81;5088658;28;20048;-54
2022/06/25 12:32:42;;;;;;;1.90;0.80;;;;;;;32.16;42.41;99328.47;5088923;28;20398;-56
2022/06/25 12:35:27;;;;;;;3.97;0.90;;;;;;;31.78;43.04;99333.97;5088400;28;20168;-55
2022/06/25 12:38:15;;;;;;;1.55;1.00;;;;;;;32.47;43.54;99328.28;5087573;28;20039;-54
2022/06/25 12:40:59;;;;;;;1.08;0.70;;;;;;;32.41;43.31;99326.28;5091566;28;20156;-54
2022/06/25 12:43:46;;;;;;;5.03;1.00;;;;;;;32.75;41.36;99321.03;5087816;28;20113;-56
2022/06/25 12:46:30;;;;;;;0.82;0.70;;;;;;;32.53;44.77;99320.22;5088757;28;20801;-55
2022/06/25 12:49:15;;;;;;;1.40;0.90;;;;;;;32.38;40.33;99319.38;5091381;28;20583;-55
2022/06/25 12:51:59;;;;;;;2.28;1.00;;;;;;;32.43;41.47;99322.38;5093274;28;20051;-55
2022/06/25 12:54:52;;;;;;;1.52;0.70;;;;;;;31.79;42.00;99319.44;5091804;28;20040;-55
2022/06/25 12:57:37;;;;;;;1.52;1.30;;;;;;;32.12;41.90;99328.03;5086266;28;20040;-55
2022/06/25 13:00:24;;;;;;;4.90;0.60;;;;;;;32.24;42.19;99320.22;5086366;28;20044;-55
2022/06/25 13:03:09;;;;;;;3.03;1.63;;;;;;;31.90;41.67;99313.56;5090943;28;20051;-54
2022/06/25 13:05:53;;;;;;;6.10;2.40;;;;;;;31.92;42.60;99322.34;5092538;28;20649;-54
2022/06/25 13:08:38;;;;;;;1.25;0.70;;;;;;;31.54;40.98;99314.28;5091371;28;20044;-56
2022/06/25 13:11:23;;;;;;;4.43;1.85;;;;;;;31.89;41.93;99315.44;5089091;28;20044;-55
2022/06/25 13:14:07;;;;;;;3.83;1.73;;;;;;;32.30;42.52;99314.91;5092036;28;20048;-55